createdAt,value
2017-11-29T00:00:30.434Z,999.77
2017-11-29T00:01:30.545Z,999.73
2017-11-29T00:02:30.471Z,999.8
2017-11-29T00:03:30.478Z,999.81
2017-11-29T00:04:30.495Z,999.79
2017-11-29T00:05:30.520Z,999.79
2017-11-29T00:06:30.529Z,999.78
2017-11-29T00:07:30.545Z,999.75
2017-11-29T00:08:30.567Z,999.72
2017-11-29T00:09:30.678Z,999.77
2017-11-29T00:10:30.600Z,999.77
2017-11-29T00:11:30.617Z,999.74
2017-11-29T00:12:30.628Z,999.79
2017-11-29T00:13:30.651Z,999.8
2017-11-29T00:14:30.660Z,999.76
2017-11-29T00:16:30.701Z,999.72
2017-11-29T00:17:30.711Z,999.76
2017-11-29T00:18:30.737Z,999.73
2017-11-29T00:19:30.744Z,999.74
2017-11-29T00:20:30.761Z,999.76
2017-11-29T00:21:30.776Z,999.72
2017-11-29T00:22:30.800Z,999.69
2017-11-29T00:23:30.811Z,999.68
2017-11-29T00:24:30.833Z,999.68
2017-11-29T00:25:30.849Z,999.73
2017-11-29T00:26:30.859Z,999.72
2017-11-29T00:27:30.879Z,999.71
2017-11-29T00:28:30.900Z,999.74
2017-11-29T00:29:30.915Z,999.76
2017-11-29T00:31:30.944Z,999.75
2017-11-29T00:32:30.960Z,999.74
2017-11-29T00:33:30.986Z,999.78
2017-11-29T00:34:31.006Z,999.82
2017-11-29T00:35:31.039Z,999.83
2017-11-29T00:36:31.026Z,999.79
2017-11-29T00:37:31.050Z,999.78
2017-11-29T00:38:31.066Z,999.8
2017-11-29T00:39:31.075Z,999.81
2017-11-29T00:40:31.098Z,999.79
2017-11-29T00:41:31.109Z,999.82
2017-11-29T00:42:31.132Z,999.81
2017-11-29T00:43:31.142Z,999.76
2017-11-29T00:44:31.158Z,999.79
2017-11-29T00:45:31.182Z,999.78
2017-11-29T00:46:31.192Z,999.79
2017-11-29T00:47:31.214Z,999.83
2017-11-29T00:48:31.231Z,999.85
2017-11-29T00:49:31.242Z,999.83
2017-11-29T00:50:31.257Z,999.85
2017-11-29T00:51:31.274Z,999.83
2017-11-29T00:52:31.301Z,999.86
2017-11-29T00:53:31.308Z,999.83
2017-11-29T00:54:31.323Z,999.82
2017-11-29T00:55:31.347Z,999.86
2017-11-29T00:56:31.357Z,999.81
2017-11-29T00:57:31.380Z,999.83
2017-11-29T00:58:31.389Z,999.82
2017-11-29T00:59:31.412Z,999.82
2017-11-29T01:00:31.423Z,999.84
2017-11-29T01:01:31.439Z,999.85
2017-11-29T01:03:31.479Z,999.8
2017-11-29T01:04:31.495Z,999.79
2017-11-29T01:05:31.511Z,999.81
2017-11-29T01:06:31.521Z,999.8
2017-11-29T01:07:31.544Z,999.84
2017-11-29T01:08:31.555Z,999.79
2017-11-29T01:09:31.570Z,999.8
2017-11-29T01:10:31.587Z,999.8
2017-11-29T01:11:31.604Z,999.79
2017-11-29T01:12:31.626Z,999.79
2017-11-29T01:13:31.643Z,999.84
2017-11-29T01:14:31.659Z,999.81
2017-11-29T01:15:31.676Z,999.8
2017-11-29T01:16:31.692Z,999.85
2017-11-29T01:17:31.708Z,999.83
2017-11-29T01:19:31.736Z,999.88
2017-11-29T01:20:31.752Z,999.85
2017-11-29T01:21:31.775Z,999.91
2017-11-29T01:22:31.789Z,999.9
2017-11-29T01:23:31.815Z,999.9
2017-11-29T01:24:31.816Z,999.89
2017-11-29T01:25:31.839Z,999.9
2017-11-29T01:26:31.850Z,999.9
2017-11-29T01:27:31.872Z,999.9
2017-11-29T01:28:31.888Z,999.91
2017-11-29T01:29:31.905Z,999.9
2017-11-29T01:30:31.953Z,999.88
2017-11-29T01:31:31.938Z,999.91
2017-11-29T01:32:31.952Z,999.9
2017-11-29T01:33:31.964Z,999.83
2017-11-29T01:35:32.002Z,999.88
2017-11-29T01:36:32.019Z,999.85
2017-11-29T01:37:32.036Z,999.89
2017-11-29T01:38:32.045Z,999.89
2017-11-29T01:39:32.067Z,999.88
2017-11-29T01:40:32.084Z,999.9
2017-11-29T01:41:32.094Z,999.88
2017-11-29T01:42:32.116Z,999.92
2017-11-29T01:43:32.126Z,999.9
2017-11-29T01:44:32.142Z,999.89
2017-11-29T01:45:32.159Z,999.89
2017-11-29T01:46:32.174Z,999.9
2017-11-29T01:47:32.197Z,999.88
2017-11-29T01:48:32.214Z,999.9
2017-11-29T01:51:32.255Z,999.9
2017-11-29T01:52:32.272Z,999.87
2017-11-29T01:53:32.287Z,999.86
2017-11-29T01:54:32.303Z,999.88
2017-11-29T01:55:32.326Z,999.91
2017-11-29T01:56:32.343Z,999.91
2017-11-29T01:57:32.357Z,999.89
2017-11-29T01:58:32.374Z,999.89
2017-11-29T01:59:32.384Z,999.9
2017-11-29T02:00:32.400Z,999.86
2017-11-29T02:01:32.422Z,999.89
2017-11-29T02:02:32.464Z,999.93
2017-11-29T02:03:32.455Z,999.89
2017-11-29T02:04:32.465Z,999.9
2017-11-29T02:06:32.498Z,999.93
2017-11-29T02:07:32.519Z,999.87
2017-11-29T02:08:32.571Z,999.89
2017-11-29T02:09:32.651Z,999.92
2017-11-29T02:10:32.568Z,999.89
2017-11-29T02:11:32.584Z,999.9
2017-11-29T02:12:32.599Z,999.88
2017-11-29T02:13:32.616Z,999.9
2017-11-29T02:14:32.631Z,999.88
2017-11-29T02:15:32.647Z,999.92
2017-11-29T02:16:32.657Z,999.91
2017-11-29T02:17:32.680Z,999.88
2017-11-29T02:18:32.695Z,999.89
2017-11-29T02:19:32.712Z,999.86
2017-11-29T02:20:32.723Z,999.83
2017-11-29T02:21:32.743Z,999.85
2017-11-29T02:22:32.753Z,999.83
2017-11-29T02:23:32.772Z,999.83
2017-11-29T02:24:32.786Z,999.85
2017-11-29T02:25:32.801Z,999.87
2017-11-29T02:26:32.824Z,999.88
2017-11-29T02:27:32.838Z,999.91
2017-11-29T02:28:32.856Z,999.87
2017-11-29T02:29:32.865Z,999.84
2017-11-29T02:30:32.889Z,999.85
2017-11-29T02:31:32.900Z,999.83
2017-11-29T02:32:32.921Z,999.82
2017-11-29T02:33:32.932Z,999.82
2017-11-29T02:34:32.950Z,999.81
2017-11-29T02:35:32.968Z,999.81
2017-11-29T02:36:32.984Z,999.81
2017-11-29T02:38:33.016Z,999.74
2017-11-29T02:39:33.032Z,999.77
2017-11-29T02:40:33.042Z,999.75
2017-11-29T02:41:33.064Z,999.71
2017-11-29T02:42:33.080Z,999.74
2017-11-29T02:43:33.090Z,999.73
2017-11-29T02:44:33.111Z,999.71
2017-11-29T02:45:33.227Z,999.72
2017-11-29T02:46:33.144Z,999.74
2017-11-29T02:47:33.153Z,999.82
2017-11-29T02:48:33.169Z,999.75
2017-11-29T02:49:33.191Z,999.82
2017-11-29T02:50:33.208Z,999.85
2017-11-29T02:51:33.218Z,999.83
2017-11-29T02:52:33.239Z,999.84
2017-11-29T02:54:33.276Z,999.81
2017-11-29T02:55:33.280Z,999.82
2017-11-29T02:56:33.296Z,999.84
2017-11-29T02:57:33.312Z,999.8
2017-11-29T02:58:33.327Z,999.79
2017-11-29T02:59:33.343Z,999.77
2017-11-29T03:00:33.366Z,999.82
2017-11-29T03:01:33.375Z,999.84
2017-11-29T03:02:33.390Z,999.84
2017-11-29T03:03:33.407Z,999.86
2017-11-29T03:04:33.423Z,999.84
2017-11-29T03:05:33.445Z,999.84
2017-11-29T03:06:33.459Z,999.85
2017-11-29T03:07:33.470Z,999.86
2017-11-29T03:08:33.486Z,999.87
2017-11-29T03:10:33.517Z,999.86
2017-11-29T03:11:33.544Z,999.86
2017-11-29T03:12:33.548Z,999.85
2017-11-29T03:13:33.564Z,999.84
2017-11-29T03:14:33.583Z,999.9
2017-11-29T03:15:33.602Z,999.83
2017-11-29T03:16:33.618Z,999.85
2017-11-29T03:17:33.627Z,999.83
2017-11-29T03:18:33.643Z,999.84
2017-11-29T03:19:33.659Z,999.8
2017-11-29T03:20:33.680Z,999.79
2017-11-29T03:21:33.691Z,999.79
2017-11-29T03:22:33.712Z,999.82
2017-11-29T03:23:33.728Z,999.8
2017-11-29T03:24:33.736Z,999.76
2017-11-29T03:26:33.780Z,999.78
2017-11-29T03:27:33.790Z,999.8
2017-11-29T03:28:33.798Z,999.77
2017-11-29T03:29:33.821Z,999.77
2017-11-29T03:30:33.832Z,999.81
2017-11-29T03:31:33.851Z,999.83
2017-11-29T03:32:33.861Z,999.86
2017-11-29T03:33:33.877Z,999.79
2017-11-29T03:34:33.893Z,999.84
2017-11-29T03:35:33.907Z,999.82
2017-11-29T03:36:33.929Z,999.84
2017-11-29T03:37:33.953Z,999.85
2017-11-29T03:38:33.961Z,999.86
2017-11-29T03:39:33.970Z,999.85
2017-11-29T03:41:34.001Z,999.87
2017-11-29T03:42:34.016Z,999.85
2017-11-29T03:43:34.041Z,999.84
2017-11-29T03:44:34.048Z,999.86
2017-11-29T03:45:34.069Z,999.88
2017-11-29T03:46:34.084Z,999.88
2017-11-29T03:47:34.093Z,999.87
2017-11-29T03:48:34.115Z,999.9
2017-11-29T03:49:34.130Z,999.9
2017-11-29T03:50:34.156Z,999.94
2017-11-29T03:51:34.162Z,999.91
2017-11-29T03:52:34.171Z,999.9
2017-11-29T03:53:34.191Z,999.86
2017-11-29T03:54:34.200Z,999.88
2017-11-29T03:55:34.215Z,999.86
2017-11-29T03:56:34.240Z,999.88
2017-11-29T03:57:34.252Z,999.94
2017-11-29T03:58:34.268Z,999.94
2017-11-29T03:59:34.378Z,999.93
2017-11-29T04:00:34.295Z,999.94
2017-11-29T04:01:34.308Z,999.93
2017-11-29T04:02:34.323Z,999.94
2017-11-29T04:03:34.338Z,999.96
2017-11-29T04:04:34.360Z,999.94
2017-11-29T04:05:34.375Z,999.94
2017-11-29T04:06:34.390Z,999.94
2017-11-29T04:07:34.406Z,999.97
2017-11-29T04:08:34.420Z,999.92
2017-11-29T04:09:34.437Z,999.94
2017-11-29T04:10:34.457Z,999.96
2017-11-29T04:11:34.466Z,999.94
2017-11-29T04:13:34.497Z,1000
2017-11-29T04:14:34.506Z,999.96
2017-11-29T04:15:34.520Z,999.93
2017-11-29T04:16:34.541Z,999.92
2017-11-29T04:17:34.558Z,999.95
2017-11-29T04:18:34.572Z,999.94
2017-11-29T04:19:34.587Z,999.9
2017-11-29T04:20:34.605Z,999.88
2017-11-29T04:21:34.617Z,999.92
2017-11-29T04:22:34.626Z,999.91
2017-11-29T04:23:34.641Z,999.96
2017-11-29T04:24:34.662Z,999.93
2017-11-29T04:25:34.677Z,999.89
2017-11-29T04:26:34.685Z,999.91
2017-11-29T04:27:34.711Z,999.92
2017-11-29T04:29:34.732Z,999.94
2017-11-29T04:30:34.759Z,999.93
2017-11-29T04:31:34.764Z,999.98
2017-11-29T04:32:34.785Z,999.93
2017-11-29T04:33:34.797Z,999.93
2017-11-29T04:34:34.815Z,999.92
2017-11-29T04:35:34.828Z,999.91
2017-11-29T04:36:34.843Z,999.9
2017-11-29T04:37:34.857Z,999.88
2017-11-29T04:38:34.866Z,999.82
2017-11-29T04:39:34.882Z,999.85
2017-11-29T04:40:34.897Z,999.84
2017-11-29T04:41:34.917Z,999.88
2017-11-29T04:42:34.928Z,999.84
2017-11-29T04:43:34.941Z,999.85
2017-11-29T04:45:34.977Z,999.84
2017-11-29T04:46:34.986Z,999.85
2017-11-29T04:47:35.002Z,999.85
2017-11-29T04:48:35.015Z,999.83
2017-11-29T04:49:35.037Z,999.81
2017-11-29T04:50:35.052Z,999.82
2017-11-29T04:51:35.061Z,999.86
2017-11-29T04:52:35.081Z,999.85
2017-11-29T04:53:35.091Z,999.87
2017-11-29T04:54:35.110Z,999.87
2017-11-29T04:55:35.125Z,999.85
2017-11-29T04:56:35.135Z,999.86
2017-11-29T04:57:35.156Z,999.8
2017-11-29T04:58:35.165Z,999.84
2017-11-29T04:59:35.179Z,999.82
2017-11-29T05:01:35.210Z,999.83
2017-11-29T05:02:35.231Z,999.81
2017-11-29T05:03:35.239Z,999.77
2017-11-29T05:04:35.260Z,999.77
2017-11-29T05:05:35.275Z,999.77
2017-11-29T05:06:35.284Z,999.79
2017-11-29T05:07:35.305Z,999.8
2017-11-29T05:08:35.319Z,999.77
2017-11-29T05:09:35.329Z,999.8
2017-11-29T05:10:35.349Z,999.8
2017-11-29T05:11:35.365Z,999.8
2017-11-29T05:12:35.379Z,999.85
2017-11-29T05:13:35.388Z,999.85
2017-11-29T05:14:35.403Z,999.86
2017-11-29T05:16:35.443Z,999.85
2017-11-29T05:17:35.453Z,999.83
2017-11-29T05:18:35.477Z,999.83
2017-11-29T05:19:35.483Z,999.82
2017-11-29T05:20:35.493Z,999.81
2017-11-29T05:21:35.506Z,999.82
2017-11-29T05:22:35.521Z,999.82
2017-11-29T05:23:35.554Z,999.79
2017-11-29T05:24:35.556Z,999.8
2017-11-29T05:25:35.565Z,999.81
2017-11-29T05:26:35.586Z,999.82
2017-11-29T05:27:35.606Z,999.83
2017-11-29T05:28:35.609Z,999.82
2017-11-29T05:29:35.624Z,999.88
2017-11-29T05:30:35.644Z,999.85
2017-11-29T05:31:35.654Z,999.86
2017-11-29T05:32:35.668Z,999.88
2017-11-29T05:33:35.682Z,999.85
2017-11-29T05:34:35.704Z,999.86
2017-11-29T05:35:35.720Z,999.85
2017-11-29T05:36:35.739Z,999.91
2017-11-29T05:37:35.741Z,999.92
2017-11-29T05:38:35.762Z,999.92
2017-11-29T05:39:35.777Z,999.93
2017-11-29T05:40:35.796Z,999.93
2017-11-29T05:41:35.800Z,999.94
2017-11-29T05:42:35.814Z,999.88
2017-11-29T05:43:35.840Z,999.87
2017-11-29T05:44:35.844Z,999.93
2017-11-29T05:45:35.863Z,999.92
2017-11-29T05:46:35.878Z,999.99
2017-11-29T05:48:35.907Z,999.91
2017-11-29T05:49:35.919Z,999.94
2017-11-29T05:50:35.930Z,999.96
2017-11-29T05:51:35.951Z,999.93
2017-11-29T05:52:35.971Z,999.95
2017-11-29T05:53:35.980Z,999.92
2017-11-29T05:54:35.987Z,999.96
2017-11-29T05:55:36.009Z,999.93
2017-11-29T05:56:36.023Z,999.93
2017-11-29T05:57:36.031Z,999.92
2017-11-29T05:58:36.052Z,999.94
2017-11-29T05:59:36.060Z,999.96
2017-11-29T06:00:36.081Z,999.95
2017-11-29T06:01:36.095Z,999.94
2017-11-29T06:02:36.109Z,999.98
2017-11-29T06:04:36.138Z,999.93
2017-11-29T06:05:36.146Z,999.94
2017-11-29T06:06:36.167Z,999.9
2017-11-29T06:07:36.182Z,999.94
2017-11-29T06:08:36.190Z,999.89
2017-11-29T06:09:36.206Z,999.95
2017-11-29T06:10:36.219Z,999.92
2017-11-29T06:11:36.241Z,999.99
2017-11-29T06:12:36.248Z,999.96
2017-11-29T06:13:36.267Z,999.96
2017-11-29T06:14:36.290Z,999.96
2017-11-29T06:15:36.292Z,1000
2017-11-29T06:16:36.305Z,999.97
2017-11-29T06:17:36.320Z,1000
2017-11-29T06:18:36.335Z,1000.03
2017-11-29T06:20:36.363Z,1000.01
2017-11-29T06:21:36.384Z,1000.04
2017-11-29T06:22:36.393Z,1000.05
2017-11-29T06:23:36.407Z,1000.05
2017-11-29T06:24:36.422Z,1000.05
2017-11-29T06:25:36.436Z,1000.02
2017-11-29T06:26:36.458Z,1000.05
2017-11-29T06:27:36.464Z,1000.1
2017-11-29T06:28:36.485Z,1000.11
2017-11-29T06:29:36.493Z,1000.07
2017-11-29T06:30:36.513Z,1000.11
2017-11-29T06:31:36.527Z,1000.12
2017-11-29T06:32:36.542Z,1000.11
2017-11-29T06:33:36.552Z,1000.1
2017-11-29T06:34:36.565Z,1000.14
2017-11-29T06:36:36.600Z,1000.14
2017-11-29T06:37:36.609Z,1000.16
2017-11-29T06:38:36.625Z,1000.18
2017-11-29T06:39:36.644Z,1000.17
2017-11-29T06:40:36.658Z,1000.17
2017-11-29T06:41:36.674Z,1000.18
2017-11-29T06:42:36.688Z,1000.17
2017-11-29T06:43:36.703Z,1000.17
2017-11-29T06:44:36.726Z,1000.2
2017-11-29T06:45:36.732Z,1000.21
2017-11-29T06:46:36.740Z,1000.21
2017-11-29T06:47:36.755Z,1000.22
2017-11-29T06:48:36.770Z,1000.23
2017-11-29T06:49:36.791Z,1000.2
2017-11-29T06:51:36.820Z,1000.22
2017-11-29T06:52:36.834Z,1000.24
2017-11-29T06:53:36.850Z,1000.21
2017-11-29T06:54:36.858Z,1000.25
2017-11-29T06:55:36.873Z,1000.27
2017-11-29T06:56:36.891Z,1000.31
2017-11-29T06:57:36.908Z,1000.3
2017-11-29T06:58:36.919Z,1000.33
2017-11-29T06:59:36.936Z,1000.36
2017-11-29T07:00:36.945Z,1000.39
2017-11-29T07:01:36.966Z,1000.42
2017-11-29T07:02:36.981Z,1000.39
2017-11-29T07:03:36.989Z,1000.42
2017-11-29T07:04:37.014Z,1000.44
2017-11-29T07:05:37.027Z,1000.43
2017-11-29T07:06:37.039Z,1000.42
2017-11-29T07:07:37.053Z,1000.44
2017-11-29T07:08:37.068Z,1000.46
2017-11-29T07:09:37.083Z,1000.46
2017-11-29T07:10:37.100Z,1000.42
2017-11-29T07:11:37.112Z,1000.43
2017-11-29T07:12:37.122Z,1000.46
2017-11-29T07:13:37.135Z,1000.51
2017-11-29T07:14:37.156Z,1000.48
2017-11-29T07:15:37.165Z,1000.55
2017-11-29T07:16:37.186Z,1000.53
2017-11-29T07:17:37.200Z,1000.55
2017-11-29T07:18:37.216Z,1000.57
2017-11-29T07:19:37.223Z,1000.61
2017-11-29T07:20:37.244Z,1000.58
2017-11-29T07:21:37.252Z,1000.57
2017-11-29T07:23:37.282Z,1000.59
2017-11-29T07:24:37.297Z,1000.59
2017-11-29T07:25:37.310Z,1000.61
2017-11-29T07:26:37.325Z,1000.64
2017-11-29T07:27:37.340Z,1000.62
2017-11-29T07:28:37.355Z,1000.62
2017-11-29T07:29:37.369Z,1000.63
2017-11-29T07:30:37.384Z,1000.66
2017-11-29T07:31:37.409Z,1000.63
2017-11-29T07:32:37.419Z,1000.66
2017-11-29T07:33:37.434Z,1000.66
2017-11-29T07:34:37.444Z,1000.66
2017-11-29T07:35:37.458Z,1000.66
2017-11-29T07:36:37.472Z,1000.71
2017-11-29T07:37:37.489Z,1000.68
2017-11-29T07:39:37.523Z,1000.68
2017-11-29T07:40:37.532Z,1000.69
2017-11-29T07:41:37.547Z,1000.69
2017-11-29T07:42:37.562Z,1000.74
2017-11-29T07:43:37.577Z,1000.72
2017-11-29T07:44:37.591Z,1000.75
2017-11-29T07:45:37.606Z,1000.73
2017-11-29T07:46:37.621Z,1000.77
2017-11-29T07:47:37.634Z,1000.78
2017-11-29T07:48:37.656Z,1000.77
2017-11-29T07:49:37.671Z,1000.81
2017-11-29T07:50:37.681Z,1000.76
2017-11-29T07:51:37.701Z,1000.78
2017-11-29T07:52:37.710Z,1000.73
2017-11-29T07:53:37.731Z,1000.77
2017-11-29T07:55:37.761Z,1000.86
2017-11-29T07:56:37.770Z,1000.79
2017-11-29T07:57:37.785Z,1000.81
2017-11-29T07:58:37.805Z,1000.82
2017-11-29T07:59:37.821Z,1000.84
2017-11-29T08:00:37.836Z,1000.85
2017-11-29T08:01:37.845Z,1000.82
2017-11-29T08:02:37.860Z,1000.8
2017-11-29T08:03:37.881Z,1000.82
2017-11-29T08:04:37.897Z,1000.82
2017-11-29T08:05:37.962Z,1000.83
2017-11-29T08:06:37.932Z,1000.8
2017-11-29T08:07:37.948Z,1000.81
2017-11-29T08:08:37.951Z,1000.83
2017-11-29T08:09:37.971Z,1000.84
2017-11-29T08:11:37.996Z,1000.88
2017-11-29T08:12:38.017Z,1000.9
2017-11-29T08:13:38.032Z,1000.91
2017-11-29T08:14:38.047Z,1000.92
2017-11-29T08:15:38.062Z,1000.93
2017-11-29T08:16:38.071Z,1000.93
2017-11-29T08:17:38.087Z,1000.91
2017-11-29T08:18:38.169Z,1000.95
2017-11-29T08:19:38.118Z,1000.89
2017-11-29T08:20:38.132Z,1000.92
2017-11-29T08:21:38.147Z,1000.94
2017-11-29T08:22:38.164Z,1000.94
2017-11-29T08:23:38.219Z,1000.98
2017-11-29T08:24:38.194Z,1001.01
2017-11-29T08:26:38.226Z,1000.94
2017-11-29T08:27:38.241Z,1000.92
2017-11-29T08:28:38.257Z,1000.88
2017-11-29T08:29:38.278Z,1000.92
2017-11-29T08:30:38.294Z,1000.95
2017-11-29T08:31:38.309Z,1001
2017-11-29T08:32:38.329Z,1000.96
2017-11-29T08:33:38.333Z,1000.97
2017-11-29T08:34:38.354Z,1001.04
2017-11-29T08:35:38.373Z,1001.03
2017-11-29T08:36:38.380Z,1001.01
2017-11-29T08:37:38.402Z,1001.04
2017-11-29T08:38:38.409Z,1000.99
2017-11-29T08:39:38.425Z,1000.99
2017-11-29T08:40:38.447Z,1000.99
2017-11-29T08:41:38.462Z,1001.04
2017-11-29T08:42:38.481Z,1001.03
2017-11-29T08:43:38.487Z,1001.01
2017-11-29T08:44:38.502Z,1001.04
2017-11-29T08:45:38.524Z,1001.07
2017-11-29T08:46:38.533Z,1001.06
2017-11-29T08:47:38.549Z,1001.06
2017-11-29T08:48:38.572Z,1001.09
2017-11-29T08:49:38.579Z,1001.05
2017-11-29T08:50:38.602Z,1001.06
2017-11-29T08:51:38.616Z,1001.12
2017-11-29T08:52:38.627Z,1001.16
2017-11-29T08:53:38.649Z,1001.17
2017-11-29T08:54:38.657Z,1001.12
2017-11-29T08:55:38.680Z,1001.19
2017-11-29T08:56:38.701Z,1001.13
2017-11-29T08:58:38.726Z,1001.15
2017-11-29T08:59:38.742Z,1001.14
2017-11-29T09:00:38.750Z,1001.13
2017-11-29T09:01:38.773Z,1001.14
2017-11-29T09:02:38.789Z,1001.1
2017-11-29T09:03:38.805Z,1001.1
2017-11-29T09:04:38.818Z,1001.11
2017-11-29T09:05:38.829Z,1001.1
2017-11-29T09:06:38.845Z,1001.11
2017-11-29T09:07:38.859Z,1001.09
2017-11-29T09:08:38.881Z,1001.11
2017-11-29T09:09:38.892Z,1001.14
2017-11-29T09:10:38.914Z,1001.16
2017-11-29T09:11:38.931Z,1001.21
2017-11-29T09:12:38.945Z,1001.16
2017-11-29T09:14:38.976Z,1001.18
2017-11-29T09:15:38.991Z,1001.18
2017-11-29T09:16:39.007Z,1001.16
2017-11-29T09:17:39.023Z,1001.14
2017-11-29T09:18:39.037Z,1001.17
2017-11-29T09:19:39.053Z,1001.17
2017-11-29T09:20:39.069Z,1001.16
2017-11-29T09:21:39.086Z,1001.23
2017-11-29T09:22:39.095Z,1001.19
2017-11-29T09:23:39.110Z,1001.22
2017-11-29T09:24:39.126Z,1001.2
2017-11-29T09:25:39.143Z,1001.17
2017-11-29T09:26:39.163Z,1001.18
2017-11-29T09:27:39.174Z,1001.21
2017-11-29T09:28:39.199Z,1001.24
2017-11-29T09:30:39.227Z,1001.23
2017-11-29T09:31:39.243Z,1001.22
2017-11-29T09:32:39.262Z,1001.17
2017-11-29T09:33:39.269Z,1001.19
2017-11-29T09:34:39.290Z,1001.15
2017-11-29T09:35:39.300Z,1001.17
2017-11-29T09:36:39.317Z,1001.11
2017-11-29T09:37:39.333Z,1001.13
2017-11-29T09:38:39.348Z,1001.15
2017-11-29T09:39:39.378Z,1001.13
2017-11-29T09:40:39.385Z,1001.08
2017-11-29T09:41:39.395Z,1001.1
2017-11-29T09:42:39.417Z,1001.1
2017-11-29T09:43:39.431Z,1001.13
2017-11-29T09:44:39.447Z,1001.11
2017-11-29T09:46:39.482Z,1001.1
2017-11-29T09:47:39.492Z,1001.11
2017-11-29T09:48:39.506Z,1001.12
2017-11-29T09:49:39.529Z,1001.13
2017-11-29T09:50:39.539Z,1001.09
2017-11-29T09:51:39.555Z,1001.09
2017-11-29T09:52:39.686Z,1001.06
2017-11-29T09:53:39.590Z,1001.06
2017-11-29T09:54:39.604Z,1001.05
2017-11-29T09:55:39.624Z,1001.05
2017-11-29T09:56:39.642Z,1001.06
2017-11-29T09:57:39.657Z,1001.05
2017-11-29T09:58:39.707Z,1001.06
2017-11-29T09:59:39.684Z,1001.02
2017-11-29T10:01:39.723Z,1001.07
2017-11-29T10:02:39.738Z,1001.05
2017-11-29T10:03:39.748Z,1001.04
2017-11-29T10:04:39.771Z,1001.04
2017-11-29T10:05:39.780Z,1001.04
2017-11-29T10:06:39.801Z,1001.02
2017-11-29T10:07:39.819Z,1000.99
2017-11-29T10:08:39.835Z,1000.99
2017-11-29T10:09:39.849Z,1000.97
2017-11-29T10:10:39.860Z,1000.98
2017-11-29T10:11:39.882Z,1000.99
2017-11-29T10:12:39.892Z,1000.94
2017-11-29T10:13:39.909Z,1000.98
2017-11-29T10:14:39.927Z,1000.95
2017-11-29T10:15:39.947Z,1000.95
2017-11-29T10:16:39.963Z,1000.95
2017-11-29T10:17:39.972Z,1000.93
2017-11-29T10:18:39.995Z,1000.92
2017-11-29T10:19:40.012Z,1000.9
2017-11-29T10:20:40.021Z,1000.93
2017-11-29T10:21:40.043Z,1000.88
2017-11-29T10:22:40.082Z,1000.87
2017-11-29T10:23:40.069Z,1000.89
2017-11-29T10:24:40.085Z,1000.86
2017-11-29T10:25:40.107Z,1000.85
2017-11-29T10:26:40.124Z,1000.87
2017-11-29T10:27:40.134Z,1000.82
2017-11-29T10:28:40.156Z,1000.82
2017-11-29T10:29:40.165Z,1000.81
2017-11-29T10:30:40.190Z,1000.81
2017-11-29T10:31:40.298Z,1000.8
2017-11-29T10:33:40.238Z,1000.78
2017-11-29T10:34:40.254Z,1000.76
2017-11-29T10:35:40.268Z,1000.74
2017-11-29T10:36:40.285Z,1000.76
2017-11-29T10:37:40.295Z,1000.79
2017-11-29T10:38:40.318Z,1000.76
2017-11-29T10:39:40.333Z,1000.79
2017-11-29T10:40:40.343Z,1000.78
2017-11-29T10:41:40.367Z,1000.78
2017-11-29T10:42:40.381Z,1000.8
2017-11-29T10:43:40.392Z,1000.77
2017-11-29T10:44:40.409Z,1000.83
2017-11-29T10:45:40.431Z,1000.8
2017-11-29T10:46:40.446Z,1000.83
2017-11-29T10:47:40.464Z,1000.83
2017-11-29T10:49:40.489Z,1000.88
2017-11-29T10:50:40.612Z,1000.82
2017-11-29T10:51:40.527Z,1000.84
2017-11-29T10:52:40.545Z,1000.83
2017-11-29T10:53:40.560Z,1000.84
2017-11-29T10:54:40.570Z,1000.83
2017-11-29T10:55:40.588Z,1000.84
2017-11-29T10:56:40.610Z,1000.85
2017-11-29T10:57:40.620Z,1000.81
2017-11-29T10:58:40.643Z,1000.87
2017-11-29T10:59:40.659Z,1000.8
2017-11-29T11:00:40.669Z,1000.81
2017-11-29T11:01:40.684Z,1000.82
2017-11-29T11:02:40.708Z,1000.83
2017-11-29T11:03:40.724Z,1000.84
2017-11-29T11:05:40.756Z,1000.83
2017-11-29T11:06:40.767Z,1000.77
2017-11-29T11:07:40.783Z,1000.78
2017-11-29T11:08:40.811Z,1000.8
2017-11-29T11:09:40.825Z,1000.8
2017-11-29T11:10:40.832Z,1000.78
2017-11-29T11:11:40.855Z,1000.78
2017-11-29T11:12:40.870Z,1000.76
2017-11-29T11:13:40.888Z,1000.75
2017-11-29T11:14:40.898Z,1000.76
2017-11-29T11:15:40.920Z,1000.73
2017-11-29T11:16:40.931Z,1000.76
2017-11-29T11:17:40.947Z,1000.77
2017-11-29T11:18:40.964Z,1000.8
2017-11-29T11:19:40.979Z,1000.82
2017-11-29T11:21:41.019Z,1000.84
2017-11-29T11:22:41.036Z,1000.85
2017-11-29T11:23:41.052Z,1000.84
2017-11-29T11:24:41.069Z,1000.82
2017-11-29T11:25:41.092Z,1000.82
2017-11-29T11:26:41.094Z,1000.84
2017-11-29T11:27:41.117Z,1000.8
2017-11-29T11:28:41.129Z,1000.81
2017-11-29T11:29:41.155Z,1000.79
2017-11-29T11:30:41.161Z,1000.86
2017-11-29T11:31:41.184Z,1000.83
2017-11-29T11:32:41.201Z,1000.83
2017-11-29T11:33:41.212Z,1000.8
2017-11-29T11:34:41.229Z,1000.79
2017-11-29T11:36:41.262Z,1000.77
2017-11-29T11:37:41.284Z,1000.76
2017-11-29T11:38:41.295Z,1000.78
2017-11-29T11:39:41.321Z,1000.74
2017-11-29T11:40:41.329Z,1000.72
2017-11-29T11:41:41.344Z,1000.68
2017-11-29T11:42:41.361Z,1000.66
2017-11-29T11:43:41.378Z,1000.7
2017-11-29T11:44:41.400Z,1000.68
2017-11-29T11:45:41.426Z,1000.69
2017-11-29T11:46:41.427Z,1000.64
2017-11-29T11:47:41.450Z,1000.67
2017-11-29T11:48:41.460Z,1000.65
2017-11-29T11:49:41.484Z,1000.63
2017-11-29T11:50:41.493Z,1000.63
2017-11-29T11:51:41.521Z,1000.6
2017-11-29T11:52:41.528Z,1000.58
2017-11-29T11:53:41.544Z,1000.56
2017-11-29T11:54:41.561Z,1000.58
2017-11-29T11:55:41.583Z,1000.59
2017-11-29T11:56:41.599Z,1000.63
2017-11-29T11:57:41.620Z,1000.63
2017-11-29T11:58:41.634Z,1000.63
2017-11-29T11:59:41.689Z,1000.6
2017-11-29T12:00:41.667Z,1000.64
2017-11-29T12:01:41.686Z,1000.6
2017-11-29T12:02:41.701Z,1000.63
2017-11-29T12:03:41.710Z,1000.63
2017-11-29T12:04:41.727Z,1000.63
2017-11-29T12:05:41.751Z,1000.61
2017-11-29T12:06:41.760Z,1000.65
2017-11-29T12:08:41.801Z,1000.6
2017-11-29T12:09:41.812Z,1000.58
2017-11-29T12:10:41.827Z,1000.58
2017-11-29T12:11:41.850Z,1000.6
2017-11-29T12:12:41.868Z,1000.56
2017-11-29T12:13:41.878Z,1000.6
2017-11-29T12:14:41.896Z,1000.58
2017-11-29T12:15:41.918Z,1000.6
2017-11-29T12:16:41.928Z,1000.6
2017-11-29T12:17:41.951Z,1000.61
2017-11-29T12:18:41.979Z,1000.61
2017-11-29T12:19:41.989Z,1000.6
2017-11-29T12:20:42.001Z,1000.62
2017-11-29T12:21:42.017Z,1000.65
2017-11-29T12:22:42.035Z,1000.63
2017-11-29T12:24:42.069Z,1000.62
2017-11-29T12:25:42.080Z,1000.62
2017-11-29T12:26:42.098Z,1000.68
2017-11-29T12:27:42.119Z,1000.61
2017-11-29T12:28:42.129Z,1000.64
2017-11-29T12:29:42.152Z,1000.67
2017-11-29T12:30:42.169Z,1000.65
2017-11-29T12:31:42.186Z,1000.65
2017-11-29T12:32:42.203Z,1000.63
2017-11-29T12:33:42.213Z,1000.63
2017-11-29T12:34:42.237Z,1000.68
2017-11-29T12:35:42.254Z,1000.68
2017-11-29T12:36:42.265Z,1000.69
2017-11-29T12:37:42.281Z,1000.67
2017-11-29T12:38:42.298Z,1000.63
2017-11-29T12:40:42.338Z,1000.65
2017-11-29T12:41:42.350Z,1000.63
2017-11-29T12:42:42.366Z,1000.63
2017-11-29T12:43:42.387Z,1000.65
2017-11-29T12:44:42.404Z,1000.6
2017-11-29T12:45:42.423Z,1000.62
2017-11-29T12:46:42.439Z,1000.61
2017-11-29T12:47:42.454Z,1000.61
2017-11-29T12:48:42.473Z,1000.61
2017-11-29T12:49:42.490Z,1000.61
2017-11-29T12:50:42.499Z,1000.63
2017-11-29T12:51:42.516Z,1000.59
2017-11-29T12:52:42.539Z,1000.63
2017-11-29T12:53:42.554Z,1000.62
2017-11-29T12:54:42.566Z,1000.61
2017-11-29T12:56:42.608Z,1000.66
2017-11-29T12:57:42.624Z,1000.65
2017-11-29T12:58:42.640Z,1000.64
2017-11-29T12:59:42.657Z,1000.64
2017-11-29T13:00:42.669Z,1000.61
2017-11-29T13:01:42.692Z,1000.64